Time;durP1;ratioP1;P1;durP2;ratioP2;P2;SDS_P1;SDS_P2;PMS_P1;PMS_P2;Temp;Humidity;BMP_temperature;BMP_pressure;BME280_temperature;BME280_humidity;BME280_pressure;Samples;Min_cycle;Max_cycle;Signal;HPM_P1;HPM_P2
2022/04/23 00:02:00;;;;;;;10.98;5.72;;;;;;;;;;4970012;28;20053;-84
2022/04/23 00:04:29;;;;;;;9.95;5.32;;;;;;;;;;4984432;28;20045;-80
2022/04/23 00:06:55;;;;;;;14.02;5.85;;;;;;;;;;4970741;28;20049;-85
2022/04/23 00:09:21;;;;;;;13.05;5.72;;;;;;;;;;4967956;28;20030;-79
2022/04/23 00:11:47;;;;;;;13.82;6.45;;;;;;;;;;4965555;28;20042;-82
2022/04/23 00:14:13;;;;;;;9.15;6.22;;;;;;;;;;4968221;28;20125;-84
2022/04/23 00:16:39;;;;;;;11.25;6.20;;;;;;;;;;4968173;28;20137;-80
2022/04/23 00:19:05;;;;;;;10.50;5.75;;;;;;;;;;4984386;28;20049;-79
2022/04/23 00:21:31;;;;;;;11.98;5.80;;;;;;;;;;4968656;28;20038;-83
2022/04/23 00:23:57;;;;;;;10.60;5.38;;;;;;;;;;4968570;28;20096;-85
2022/04/23 00:26:23;;;;;;;10.23;6.57;;;;;;;;;;4969208;28;20046;-80
2022/04/23 00:28:49;;;;;;;12.95;6.60;;;;;;;;;;4986275;28;20050;-82
2022/04/23 00:31:15;;;;;;;9.55;5.70;;;;;;;;;;4968556;28;20039;-82
2022/04/23 00:33:41;;;;;;;10.85;6.05;;;;;;;;;;4987667;28;20046;-86
2022/04/23 00:36:10;;;;;;;12.55;5.68;;;;;;;;;;4967451;28;20042;-82
2022/04/23 00:38:37;;;;;;;8.75;5.70;;;;;;;;;;4961420;28;20391;-80
2022/04/23 00:41:03;;;;;;;10.88;5.63;;;;;;;;;;4959270;28;20065;-80
2022/04/23 00:43:30;;;;;;;8.75;5.47;;;;;;;;;;4959410;28;20379;-85
2022/04/23 00:45:57;;;;;;;8.93;6.38;;;;;;;;;;4975934;28;20042;-83
2022/04/23 00:48:24;;;;;;;11.45;6.38;;;;;;;;;;4959899;28;20043;-78
2022/04/23 00:50:54;;;;;;;12.48;6.50;;;;;;;;;;4960142;28;20078;-83
2022/04/23 00:53:21;;;;;;;12.73;5.95;;;;;;;;;;4976672;28;20049;-85
2022/04/23 00:55:47;;;;;;;11.40;5.70;;;;;;;;;;4960016;28;20407;-81
2022/04/23 00:58:17;;;;;;;8.63;5.65;;;;;;;;;;4959378;28;20101;-82
2022/04/23 01:00:43;;;;;;;11.65;6.50;;;;;;;;;;4959467;28;20061;-80
2022/04/23 01:03:12;;;;;;;10.20;6.72;;;;;;;;;;4959582;28;20034;-80
2022/04/23 01:05:39;;;;;;;9.77;6.72;;;;;;;;;;4959541;28;20455;-80
2022/04/23 01:08:05;;;;;;;13.10;6.95;;;;;;;;;;4959547;28;20553;-85
2022/04/23 01:10:31;;;;;;;13.30;8.13;;;;;;;;;;4959562;28;20506;-83
2022/04/23 01:12:58;;;;;;;9.73;6.38;;;;;;;;;;4959891;28;20043;-81
2022/04/23 01:15:24;;;;;;;11.43;6.43;;;;;;;;;;4959307;28;20074;-84
2022/04/23 01:17:50;;;;;;;15.48;6.50;;;;;;;;;;4959821;28;20097;-82
2022/04/23 01:20:16;;;;;;;8.43;6.00;;;;;;;;;;4959620;28;20483;-81
2022/04/23 01:22:43;;;;;;;10.43;7.32;;;;;;;;;;4959002;28;20096;-82
2022/04/23 01:25:12;;;;;;;12.43;6.55;;;;;;;;;;4975640;28;20092;-83
2022/04/23 01:27:38;;;;;;;15.95;7.55;;;;;;;;;;4959449;28;20044;-80
2022/04/23 01:30:06;;;;;;;10.85;6.32;;;;;;;;;;4959253;28;20054;-83
2022/04/23 01:32:32;;;;;;;10.40;6.20;;;;;;;;;;4958979;28;20125;-79
2022/04/23 01:34:58;;;;;;;11.18;7.05;;;;;;;;;;4975577;28;20038;-83
2022/04/23 01:37:24;;;;;;;11.93;6.55;;;;;;;;;;4959241;28;20162;-81
2022/04/23 01:39:50;;;;;;;11.75;7.57;;;;;;;;;;4962417;28;20105;-83
2022/04/23 01:42:20;;;;;;;11.85;6.88;;;;;;;;;;4979232;28;20137;-80
2022/04/23 01:44:46;;;;;;;13.60;7.25;;;;;;;;;;4962919;28;20056;-83
2022/04/23 01:47:13;;;;;;;9.65;6.65;;;;;;;;;;4979384;28;20058;-87
2022/04/23 01:49:40;;;;;;;15.27;7.38;;;;;;;;;;4962613;28;20398;-82
2022/04/23 01:52:06;;;;;;;13.48;7.68;;;;;;;;;;4978804;28;20035;-81
2022/04/23 01:54:32;;;;;;;12.65;7.43;;;;;;;;;;4963123;28;20133;-82
2022/04/23 01:56:58;;;;;;;11.95;7.07;;;;;;;;;;4962382;28;20046;-79
2022/04/23 01:59:25;;;;;;;12.70;6.65;;;;;;;;;;4962224;28;20053;-82
2022/04/23 02:01:51;;;;;;;14.48;7.20;;;;;;;;;;4962344;28;20039;-83
2022/04/23 02:04:17;;;;;;;15.77;8.02;;;;;;;;;;4962612;28;20490;-81
2022/04/23 02:06:43;;;;;;;17.00;7.07;;;;;;;;;;4962356;28;20490;-84
2022/04/23 02:09:09;;;;;;;16.02;8.60;;;;;;;;;;4962145;28;20042;-80
2022/04/23 02:11:35;;;;;;;14.25;7.50;;;;;;;;;;4978224;28;20041;-80
2022/04/23 02:14:02;;;;;;;12.77;7.20;;;;;;;;;;4962056;28;20073;-82
2022/04/23 02:16:28;;;;;;;17.80;7.20;;;;;;;;;;4978475;28;20046;-83
2022/04/23 02:18:57;;;;;;;17.60;8.30;;;;;;;;;;4961878;28;20045;-84
2022/04/23 02:21:24;;;;;;;16.50;8.00;;;;;;;;;;4978206;28;20054;-80
2022/04/23 02:23:50;;;;;;;11.60;6.65;;;;;;;;;;4978304;28;20592;-83
2022/04/23 02:26:16;;;;;;;17.02;7.18;;;;;;;;;;4961951;28;20046;-86
2022/04/23 02:28:42;;;;;;;10.20;6.32;;;;;;;;;;4961826;28;20133;-83
2022/04/23 02:31:08;;;;;;;13.25;7.55;;;;;;;;;;4962035;28;20506;-82
2022/04/23 02:33:34;;;;;;;14.35;7.43;;;;;;;;;;4961851;28;20064;-78
2022/04/23 02:36:02;;;;;;;14.10;7.78;;;;;;;;;;4977992;28;20042;-84
2022/04/23 02:38:28;;;;;;;14.43;7.95;;;;;;;;;;4961899;28;20069;-81
2022/04/23 02:40:54;;;;;;;14.23;7.85;;;;;;;;;;4961395;28;20129;-80
2022/04/23 02:43:21;;;;;;;13.95;7.32;;;;;;;;;;4961588;28;20130;-81
2022/04/23 02:45:48;;;;;;;12.98;8.50;;;;;;;;;;4961156;28;20451;-79
2022/04/23 02:48:14;;;;;;;13.35;7.32;;;;;;;;;;4977615;28;20125;-84
2022/04/23 02:50:40;;;;;;;10.48;5.68;;;;;;;;;;4977323;28;20145;-87
2022/04/23 02:53:06;;;;;;;10.75;6.07;;;;;;;;;;4961399;28;20042;-79
2022/04/23 02:55:33;;;;;;;12.73;8.07;;;;;;;;;;4977456;28;20097;-84
2022/04/23 02:58:08;;;;;;;17.23;7.28;;;;;;;;;;4961237;28;20044;-85
2022/04/23 03:00:34;;;;;;;13.85;7.03;;;;;;;;;;4961645;28;20140;-83
2022/04/23 03:03:00;;;;;;;17.17;8.45;;;;;;;;;;4961475;28;20089;-82
2022/04/23 03:05:27;;;;;;;12.55;7.45;;;;;;;;;;4961306;28;20045;-83
2022/04/23 03:07:53;;;;;;;13.93;7.65;;;;;;;;;;4977369;28;20040;-81
2022/04/23 03:10:19;;;;;;;14.57;7.90;;;;;;;;;;4959774;28;20039;-83
2022/04/23 03:12:45;;;;;;;13.63;8.13;;;;;;;;;;4985336;28;20487;-83
2022/04/23 03:15:18;;;;;;;18.70;8.55;;;;;;;;;;4958088;28;20165;-82
2022/04/23 03:17:45;;;;;;;16.75;8.27;;;;;;;;;;4961571;28;20034;-83
2022/04/23 03:20:12;;;;;;;18.60;8.23;;;;;;;;;;4976191;28;20128;-83
2022/04/23 03:22:38;;;;;;;14.30;7.90;;;;;;;;;;4984534;28;20042;-78
2022/04/23 03:25:05;;;;;;;12.52;7.90;;;;;;;;;;4958439;28;20096;-78
2022/04/23 03:27:31;;;;;;;14.98;8.20;;;;;;;;;;4984790;28;20042;-85
2022/04/23 03:30:00;;;;;;;13.20;7.85;;;;;;;;;;4976504;28;20101;-81
2022/04/23 03:32:27;;;;;;;12.80;7.00;;;;;;;;;;4961399;28;20129;-85
2022/04/23 03:34:53;;;;;;;11.95;6.65;;;;;;;;;;4958363;28;20038;-82
2022/04/23 03:37:19;;;;;;;14.45;7.10;;;;;;;;;;4960565;28;20045;-81
2022/04/23 03:39:46;;;;;;;13.55;8.07;;;;;;;;;;4960464;28;20044;-84
2022/04/23 03:42:12;;;;;;;12.48;6.78;;;;;;;;;;4959821;28;20034;-82
2022/04/23 03:44:38;;;;;;;13.20;7.82;;;;;;;;;;4985250;28;20057;-82
2022/04/23 03:47:04;;;;;;;13.88;8.88;;;;;;;;;;4976320;28;20042;-85
2022/04/23 03:49:31;;;;;;;12.82;7.75;;;;;;;;;;4957583;28;20092;-79
2022/04/23 03:51:57;;;;;;;12.07;7.18;;;;;;;;;;4958809;28;20549;-80
2022/04/23 03:54:24;;;;;;;14.43;7.15;;;;;;;;;;4974166;28;20499;-81
2022/04/23 03:56:50;;;;;;;12.32;8.13;;;;;;;;;;4984108;28;20042;-78
2022/04/23 03:59:20;;;;;;;10.57;6.53;;;;;;;;;;4984594;28;20050;-84
2022/04/23 04:01:47;;;;;;;12.93;7.77;;;;;;;;;;4956328;28;20402;-85
2022/04/23 04:04:14;;;;;;;13.10;6.45;;;;;;;;;;4958992;28;20292;-86
2022/04/23 04:06:40;;;;;;;16.65;7.90;;;;;;;;;;4984442;28;20623;-86
2022/04/23 04:09:06;;;;;;;8.98;5.43;;;;;;;;;;4957654;28;20121;-86
2022/04/23 04:12:01;;;;;;;14.00;6.47;;;;;;;;;;4984194;28;20121;-84
2022/04/23 04:14:18;;;;;;;16.05;7.32;;;;;;;;;;4974401;28;20077;-78
2022/04/23 04:16:45;;;;;;;11.88;6.50;;;;;;;;;;4975541;28;20042;-83
2022/04/23 04:19:12;;;;;;;14.85;8.20;;;;;;;;;;4959313;28;20479;-83
2022/04/23 04:21:38;;;;;;;14.57;8.40;;;;;;;;;;4975836;28;20162;-82
2022/04/23 04:24:04;;;;;;;13.43;8.65;;;;;;;;;;4957106;28;20042;-84
2022/04/23 04:26:31;;;;;;;13.40;7.13;;;;;;;;;;4983393;28;20038;-82
2022/04/23 04:28:57;;;;;;;13.65;7.75;;;;;;;;;;4977843;28;20057;-83
2022/04/23 04:34:08;;;;;;;12.48;7.70;;;;;;;;;;4985481;28;20050;-85
2022/04/23 04:36:34;;;;;;;13.98;8.07;;;;;;;;;;4970911;28;20042;-82
2022/04/23 04:39:00;;;;;;;14.70;8.75;;;;;;;;;;4969170;28;20045;-80
2022/04/23 04:41:29;;;;;;;15.35;8.43;;;;;;;;;;4969904;28;20435;-82
2022/04/23 04:43:55;;;;;;;14.85;8.35;;;;;;;;;;4969080;28;20037;-81
2022/04/23 04:46:21;;;;;;;13.30;7.85;;;;;;;;;;4969073;28;20053;-80
2022/04/23 04:48:47;;;;;;;14.40;8.10;;;;;;;;;;4967821;28;20475;-81
2022/04/23 04:51:13;;;;;;;14.80;7.65;;;;;;;;;;4978137;28;20042;-81
2022/04/23 04:53:39;;;;;;;14.35;7.45;;;;;;;;;;4959587;28;20050;-81
2022/04/23 04:56:05;;;;;;;12.70;7.75;;;;;;;;;;4975618;28;20049;-81
2022/04/23 04:58:31;;;;;;;16.38;7.97;;;;;;;;;;4975350;28;20046;-83
2022/04/23 05:00:57;;;;;;;13.63;8.43;;;;;;;;;;4959880;28;20038;-83
2022/04/23 05:03:25;;;;;;;16.08;7.82;;;;;;;;;;4960103;28;20057;-90
2022/04/23 05:05:51;;;;;;;11.45;7.45;;;;;;;;;;4959682;28;20478;-81
2022/04/23 05:08:17;;;;;;;14.55;7.13;;;;;;;;;;4959647;28;20050;-86
2022/04/23 05:10:43;;;;;;;9.95;7.18;;;;;;;;;;4960073;28;20053;-77
2022/04/23 05:13:09;;;;;;;12.95;6.80;;;;;;;;;;4960141;28;20038;-81
2022/04/23 05:15:37;;;;;;;15.77;7.43;;;;;;;;;;4980386;28;20080;-85
2022/04/23 05:18:03;;;;;;;11.35;7.45;;;;;;;;;;4964677;28;20108;-83
2022/04/23 05:20:29;;;;;;;10.20;7.03;;;;;;;;;;4963780;28;20046;-86
2022/04/23 05:22:55;;;;;;;14.02;6.45;;;;;;;;;;4963687;28;20565;-85
2022/04/23 05:25:21;;;;;;;12.65;7.57;;;;;;;;;;4963413;28;20053;-83
2022/04/23 05:27:47;;;;;;;14.35;7.43;;;;;;;;;;4979022;28;20522;-89
2022/04/23 05:30:13;;;;;;;14.90;8.77;;;;;;;;;;4962878;28;20069;-80
2022/04/23 05:32:39;;;;;;;13.20;7.60;;;;;;;;;;4979773;28;20053;-83
2022/04/23 05:35:05;;;;;;;12.55;7.72;;;;;;;;;;4963097;28;20042;-87
2022/04/23 05:37:31;;;;;;;10.82;7.15;;;;;;;;;;4979256;28;20065;-85
2022/04/23 05:39:57;;;;;;;13.68;7.55;;;;;;;;;;4962885;28;20042;-79
2022/04/23 05:42:23;;;;;;;10.75;7.03;;;;;;;;;;4963600;28;20046;-87
2022/04/23 05:44:49;;;;;;;13.40;7.10;;;;;;;;;;4962906;28;20042;-81
2022/04/23 05:47:15;;;;;;;12.65;6.78;;;;;;;;;;4962842;28;20042;-82
2022/04/23 05:49:41;;;;;;;10.55;7.72;;;;;;;;;;4962643;28;20042;-83
2022/04/23 05:52:08;;;;;;;13.95;8.85;;;;;;;;;;4962917;28;20566;-84
2022/04/23 05:54:34;;;;;;;14.35;8.48;;;;;;;;;;4979016;28;20042;-83
2022/04/23 05:57:00;;;;;;;13.98;7.35;;;;;;;;;;4962436;28;20105;-79
2022/04/23 05:59:29;;;;;;;12.93;8.07;;;;;;;;;;4978663;28;20129;-82
2022/04/23 06:01:55;;;;;;;11.45;6.28;;;;;;;;;;4962348;28;20050;-84
2022/04/23 06:04:22;;;;;;;11.73;7.07;;;;;;;;;;4962388;28;20084;-81
2022/04/23 06:06:48;;;;;;;11.90;6.82;;;;;;;;;;4962136;28;20388;-82
2022/04/23 06:09:14;;;;;;;12.45;6.40;;;;;;;;;;4962289;28;20482;-83
2022/04/23 06:11:40;;;;;;;9.93;7.05;;;;;;;;;;4962513;28;20038;-82
2022/04/23 06:14:06;;;;;;;14.95;7.50;;;;;;;;;;4962264;28;20046;-82
2022/04/23 06:16:34;;;;;;;11.48;7.03;;;;;;;;;;4961797;28;20038;-86
2022/04/23 06:19:00;;;;;;;10.65;7.00;;;;;;;;;;4962145;28;20042;-83
2022/04/23 06:21:26;;;;;;;13.05;6.95;;;;;;;;;;4962369;28;20380;-84
2022/04/23 06:23:52;;;;;;;12.23;7.40;;;;;;;;;;4962128;28;20133;-84
2022/04/23 06:26:18;;;;;;;10.45;6.82;;;;;;;;;;4961318;28;20045;-84
2022/04/23 06:28:44;;;;;;;12.05;8.02;;;;;;;;;;4962062;28;20050;-85
2022/04/23 06:31:10;;;;;;;11.00;7.18;;;;;;;;;;4962381;28;20092;-85
2022/04/23 06:33:36;;;;;;;12.80;7.70;;;;;;;;;;4961802;28;20141;-83
2022/04/23 06:36:02;;;;;;;9.38;6.88;;;;;;;;;;4962461;28;20129;-83
2022/04/23 06:38:28;;;;;;;13.73;7.57;;;;;;;;;;4978977;28;20049;-86
2022/04/23 06:40:54;;;;;;;10.82;6.78;;;;;;;;;;4962174;28;20144;-81
2022/04/23 06:43:20;;;;;;;8.88;7.35;;;;;;;;;;4961728;28;20053;-88
2022/04/23 06:45:46;;;;;;;10.25;6.80;;;;;;;;;;4962315;28;20046;-85
2022/04/23 06:48:12;;;;;;;11.82;7.53;;;;;;;;;;4978067;28;20073;-85
2022/04/23 06:50:39;;;;;;;11.32;7.43;;;;;;;;;;4961812;28;20042;-84
2022/04/23 06:53:05;;;;;;;9.77;6.72;;;;;;;;;;4977998;28;20038;-82
2022/04/23 06:55:32;;;;;;;9.88;7.35;;;;;;;;;;4961501;28;20053;-81
2022/04/23 06:57:58;;;;;;;10.02;7.57;;;;;;;;;;4961498;28;20747;-85
2022/04/23 07:00:24;;;;;;;9.73;7.20;;;;;;;;;;4977562;28;20088;-81
2022/04/23 07:02:50;;;;;;;12.32;8.25;;;;;;;;;;4977015;28;20085;-79
2022/04/23 07:05:17;;;;;;;13.25;7.85;;;;;;;;;;4977600;28;20054;-81
2022/04/23 07:08:01;;;;;;;12.32;9.05;;;;;;;;;;4960992;28;20052;-85
2022/04/23 07:10:27;;;;;;;9.60;7.72;;;;;;;;;;4961336;28;20042;-80
2022/04/23 07:12:54;;;;;;;11.85;10.75;;;;;;;;;;4960974;28;20046;-80
2022/04/23 07:15:20;;;;;;;13.05;11.60;;;;;;;;;;4960703;28;20045;-82
2022/04/23 07:17:47;;;;;;;10.05;8.38;;;;;;;;;;4959020;28;20042;-81
2022/04/23 07:20:13;;;;;;;14.18;7.90;;;;;;;;;;4976330;28;20056;-80
2022/04/23 07:22:39;;;;;;;9.35;7.18;;;;;;;;;;4959812;28;20046;-82
2022/04/23 07:25:08;;;;;;;11.23;7.32;;;;;;;;;;4960253;28;20560;-81
2022/04/23 07:27:34;;;;;;;13.25;10.77;;;;;;;;;;4960020;28;20551;-79
2022/04/23 07:30:00;;;;;;;20.25;11.50;;;;;;;;;;4975984;28;20054;-80
2022/04/23 07:32:26;;;;;;;12.02;10.38;;;;;;;;;;4957303;28;20038;-80
2022/04/23 07:37:36;;;;;;;10.90;9.90;;;;;;;;;;4973219;28;20137;-80
2022/04/23 07:40:10;;;;;;;12.85;10.30;;;;;;;;;;4957279;28;20464;-81
2022/04/23 07:42:36;;;;;;;11.00;10.00;;;;;;;;;;4973832;28;20054;-82
2022/04/23 07:45:02;;;;;;;11.15;10.05;;;;;;;;;;4956472;28;20038;-83
2022/04/23 07:47:28;;;;;;;11.25;10.13;;;;;;;;;;4969567;28;20046;-82
2022/04/23 07:49:54;;;;;;;12.25;11.02;;;;;;;;;;4955603;28;20466;-82
2022/04/23 07:52:20;;;;;;;11.40;10.20;;;;;;;;;;4973355;28;20052;-86
2022/04/23 07:54:46;;;;;;;11.48;10.38;;;;;;;;;;4957369;28;20402;-83
2022/04/23 07:57:12;;;;;;;11.27;10.18;;;;;;;;;;4959533;28;20130;-85
2022/04/23 07:59:41;;;;;;;12.95;10.75;;;;;;;;;;4960175;28;20422;-79
2022/04/23 08:02:07;;;;;;;11.27;10.05;;;;;;;;;;4960878;28;20053;-80
2022/04/23 08:04:34;;;;;;;12.23;10.35;;;;;;;;;;4960188;28;20042;-86
2022/04/23 08:07:00;;;;;;;11.48;10.43;;;;;;;;;;4976101;28;20042;-82
2022/04/23 08:09:26;;;;;;;11.18;10.02;;;;;;;;;;4960317;28;20541;-80
2022/04/23 08:11:52;;;;;;;15.85;10.70;;;;;;;;;;4976270;28;20431;-81
2022/04/23 08:14:18;;;;;;;13.40;10.00;;;;;;;;;;4959981;28;20045;-79
2022/04/23 08:16:45;;;;;;;10.80;9.80;;;;;;;;;;4976129;28;20472;-85
2022/04/23 08:19:11;;;;;;;12.32;11.05;;;;;;;;;;4975743;28;20396;-82
2022/04/23 08:21:37;;;;;;;12.27;10.98;;;;;;;;;;4976025;28;20053;-78
2022/04/23 08:24:03;;;;;;;11.68;10.57;;;;;;;;;;4975894;28;20065;-82
2022/04/23 08:26:29;;;;;;;12.75;11.45;;;;;;;;;;4975524;28;20046;-83
2022/04/23 08:31:40;;;;;;;13.73;10.63;;;;;;;;;;4971930;28;20507;-84
2022/04/23 08:34:06;;;;;;;11.88;10.60;;;;;;;;;;4972390;28;20046;-82
2022/04/23 08:36:36;;;;;;;11.77;10.57;;;;;;;;;;4955970;28;20046;-81
2022/04/23 08:39:04;;;;;;;12.13;10.65;;;;;;;;;;4956121;28;20475;-80
2022/04/23 08:41:31;;;;;;;11.65;10.45;;;;;;;;;;4972085;28;20561;-82
2022/04/23 08:44:05;;;;;;;12.85;11.25;;;;;;;;;;4971375;28;20414;-80
2022/04/23 08:46:35;;;;;;;13.65;10.38;;;;;;;;;;4940007;28;20053;-82
2022/04/23 08:49:07;;;;;;;16.65;10.68;;;;;;;;;;4972253;28;20042;-83
2022/04/23 08:51:34;;;;;;;11.13;10.02;;;;;;;;;;4973848;28;20046;-83
2022/04/23 08:54:04;;;;;;;10.70;9.70;;;;;;;;;;4956953;28;20099;-80
2022/04/23 08:56:30;;;;;;;11.85;10.68;;;;;;;;;;4956510;28;20038;-82
2022/04/23 08:58:57;;;;;;;11.63;10.55;;;;;;;;;;4974143;28;20049;-81
2022/04/23 09:01:23;;;;;;;10.55;9.65;;;;;;;;;;4957134;28;20060;-81
2022/04/23 09:03:49;;;;;;;11.77;10.55;;;;;;;;;;4956098;28;20034;-82
2022/04/23 09:06:15;;;;;;;12.02;10.65;;;;;;;;;;4956028;28;20141;-87
2022/04/23 09:09:00;;;;;;;10.95;9.95;;;;;;;;;;4956736;28;20050;-78
2022/04/23 09:11:36;;;;;;;12.50;10.27;;;;;;;;;;4960603;28;20046;-84
2022/04/23 09:14:06;;;;;;;12.07;10.82;;;;;;;;;;4975461;28;20092;-82
2022/04/23 09:25:10;;;;;;;12.60;11.57;;;;;;;;;;4975193;28;20495;-82
2022/04/23 09:27:43;;;;;;;12.80;11.40;;;;;;;;;;4956343;28;20054;-80
2022/04/23 09:30:09;;;;;;;10.25;8.52;;;;;;;;;;4980470;28;20085;-81
2022/04/23 09:32:36;;;;;;;13.63;12.15;;;;;;;;;;4968686;28;20034;-79
2022/04/23 09:35:09;;;;;;;10.25;8.32;;;;;;;;;;4983638;28;20034;-84
2022/04/23 09:40:21;;;;;;;9.75;7.78;;;;;;;;;;4994552;28;20046;-78
2022/04/23 09:42:56;;;;;;;10.13;7.97;;;;;;;;;;4978360;28;20104;-80
2022/04/23 09:45:26;;;;;;;13.35;6.80;;;;;;;;;;4978232;28;20038;-82
2022/04/23 09:47:52;;;;;;;9.48;7.32;;;;;;;;;;4978257;28;20065;-82
2022/04/23 09:50:18;;;;;;;10.23;6.57;;;;;;;;;;4978274;28;20038;-79
2022/04/23 09:52:45;;;;;;;9.57;7.45;;;;;;;;;;4978445;28;20053;-81
2022/04/23 09:55:12;;;;;;;10.05;7.35;;;;;;;;;;4994621;28;20049;-81
2022/04/23 09:57:38;;;;;;;10.95;7.53;;;;;;;;;;4990891;28;20049;-84
2022/04/23 10:00:07;;;;;;;9.60;7.68;;;;;;;;;;4985005;28;20049;-80
2022/04/23 10:02:34;;;;;;;10.43;7.05;;;;;;;;;;4971826;28;20054;-80
2022/04/23 10:05:02;;;;;;;10.02;6.53;;;;;;;;;;4970004;28;20640;-79
2022/04/23 10:07:29;;;;;;;9.18;7.43;;;;;;;;;;4988563;28;20133;-81
2022/04/23 10:09:57;;;;;;;10.68;7.28;;;;;;;;;;4983731;28;20045;-79
2022/04/23 10:12:26;;;;;;;9.20;6.50;;;;;;;;;;4969117;28;20575;-78
2022/04/23 10:14:57;;;;;;;10.15;7.47;;;;;;;;;;4982568;28;20065;-80
2022/04/23 10:17:24;;;;;;;8.75;7.25;;;;;;;;;;4961281;28;20082;-83
2022/04/23 10:19:50;;;;;;;10.32;7.35;;;;;;;;;;4960467;28;20057;-80
2022/04/23 10:22:29;;;;;;;9.00;6.45;;;;;;;;;;4976325;28;20505;-78
2022/04/23 10:24:56;;;;;;;10.95;7.82;;;;;;;;;;4959784;28;20112;-85
2022/04/23 10:27:25;;;;;;;11.60;8.18;;;;;;;;;;4958995;28;20074;-83
2022/04/23 10:29:54;;;;;;;10.13;7.07;;;;;;;;;;4958748;28;20062;-82
2022/04/23 10:32:20;;;;;;;10.60;6.97;;;;;;;;;;4975221;28;20039;-82
2022/04/23 10:34:46;;;;;;;11.38;7.88;;;;;;;;;;4960437;28;20042;-80
2022/04/23 10:37:13;;;;;;;10.48;7.30;;;;;;;;;;4959742;28;20050;-85
2022/04/23 10:39:42;;;;;;;10.38;7.25;;;;;;;;;;4960327;28;20042;-85
2022/04/23 10:42:08;;;;;;;9.23;7.60;;;;;;;;;;4959644;28;20046;-78
2022/04/23 10:44:34;;;;;;;9.70;7.50;;;;;;;;;;4960155;28;20192;-86
2022/04/23 10:47:00;;;;;;;10.32;7.15;;;;;;;;;;4975660;28;20407;-84
2022/04/23 10:49:27;;;;;;;10.57;7.22;;;;;;;;;;4976242;28;20046;-82
2022/04/23 10:51:57;;;;;;;10.52;7.78;;;;;;;;;;4959953;28;20043;-84
2022/04/23 10:54:47;;;;;;;10.50;7.50;;;;;;;;;;4959144;28;20054;-87
2022/04/23 10:57:14;;;;;;;9.60;7.85;;;;;;;;;;4958772;28;20046;-82
2022/04/23 10:59:47;;;;;;;9.75;7.63;;;;;;;;;;4959584;28;20046;-82
2022/04/23 11:02:20;;;;;;;8.98;6.25;;;;;;;;;;4959649;28;20057;-84
2022/04/23 11:13:28;;;;;;;9.82;7.20;;;;;;;;;;4975443;28;20513;-87
2022/04/23 11:16:11;;;;;;;10.23;6.45;;;;;;;;;;4974391;28;20121;-81
2022/04/23 11:18:37;;;;;;;10.32;6.95;;;;;;;;;;4958768;28;20042;-86
2022/04/23 11:21:12;;;;;;;11.27;7.35;;;;;;;;;;4960626;28;20049;-82
2022/04/23 11:23:45;;;;;;;15.07;7.35;;;;;;;;;;4960975;28;20173;-81
2022/04/23 11:26:15;;;;;;;12.40;7.07;;;;;;;;;;4976914;28;20064;-83
2022/04/23 11:28:42;;;;;;;12.02;7.55;;;;;;;;;;4976710;28;20062;-83
2022/04/23 11:31:09;;;;;;;10.40;6.95;;;;;;;;;;4961621;28;20141;-84
2022/04/23 11:33:36;;;;;;;11.73;7.00;;;;;;;;;;4962883;28;20038;-82
2022/04/23 11:36:02;;;;;;;10.73;7.15;;;;;;;;;;4962682;28;20054;-80
2022/04/23 11:38:29;;;;;;;13.55;6.88;;;;;;;;;;4978283;28;20054;-83
2022/04/23 11:40:55;;;;;;;11.57;7.40;;;;;;;;;;4961321;28;20042;-82
2022/04/23 11:43:28;;;;;;;10.68;6.43;;;;;;;;;;4961669;28;20042;-86
2022/04/23 11:45:57;;;;;;;10.65;7.03;;;;;;;;;;4977033;28;20383;-86
2022/04/23 11:48:24;;;;;;;14.48;7.38;;;;;;;;;;4960358;28;20077;-80
2022/04/23 11:50:50;;;;;;;7.40;5.28;;;;;;;;;;4977164;28;20546;-86
2022/04/23 11:53:16;;;;;;;10.30;6.47;;;;;;;;;;4960827;28;20070;-84
2022/04/23 11:55:42;;;;;;;9.02;6.35;;;;;;;;;;4960676;28;20121;-80
2022/04/23 11:58:08;;;;;;;7.72;6.25;;;;;;;;;;4960273;28;20042;-82
2022/04/23 12:00:35;;;;;;;9.45;5.95;;;;;;;;;;4960262;28;20046;-83
2022/04/23 12:03:02;;;;;;;8.45;6.40;;;;;;;;;;4960181;28;20049;-84
2022/04/23 12:05:32;;;;;;;9.15;6.10;;;;;;;;;;4960512;28;20479;-81
2022/04/23 12:07:58;;;;;;;8.05;6.13;;;;;;;;;;4959797;28;20042;-80
2022/04/23 12:10:28;;;;;;;9.80;6.65;;;;;;;;;;4960053;28;20107;-82
2022/04/23 12:12:56;;;;;;;9.35;6.57;;;;;;;;;;4959957;28;20041;-84
2022/04/23 12:15:22;;;;;;;8.40;6.07;;;;;;;;;;4960100;28;20081;-83
2022/04/23 12:17:49;;;;;;;9.20;6.18;;;;;;;;;;4959986;28;20097;-83
2022/04/23 12:20:23;;;;;;;11.82;5.88;;;;;;;;;;4960116;28;20042;-86
2022/04/23 12:23:00;;;;;;;6.63;4.63;;;;;;;;;;4959535;28;20038;-80
2022/04/23 12:25:27;;;;;;;9.00;6.13;;;;;;;;;;4960095;28;20479;-84
2022/04/23 12:42:07;;;;;;;7.60;5.43;;;;;;;;;;4975398;28;20046;-79
2022/04/23 12:44:40;;;;;;;7.23;5.97;;;;;;;;;;4974986;28;20104;-84
2022/04/23 12:47:07;;;;;;;7.13;6.07;;;;;;;;;;4959308;28;20054;-80
2022/04/23 12:49:55;;;;;;;10.52;5.93;;;;;;;;;;4975411;28;20410;-82
2022/04/23 12:52:21;;;;;;;6.30;5.20;;;;;;;;;;4959232;28;20034;-87
2022/04/23 12:55:06;;;;;;;8.20;5.75;;;;;;;;;;4959321;28;20034;-82
2022/04/23 12:57:33;;;;;;;6.53;5.90;;;;;;;;;;4960059;28;20051;-79
2022/04/23 13:00:01;;;;;;;7.47;5.00;;;;;;;;;;4959948;28;20046;-80
2022/04/23 13:02:36;;;;;;;6.30;4.40;;;;;;;;;;4975951;28;20046;-85
2022/04/23 13:05:07;;;;;;;10.93;6.22;;;;;;;;;;4975798;28;20054;-82
2022/04/23 13:10:18;;;;;;;6.38;5.40;;;;;;;;;;4975332;28;20046;-81
2022/04/23 13:12:44;;;;;;;9.70;5.82;;;;;;;;;;4975314;28;20041;-83
2022/04/23 13:15:11;;;;;;;8.70;5.15;;;;;;;;;;4959357;28;20089;-86
2022/04/23 13:17:38;;;;;;;10.32;5.15;;;;;;;;;;4959296;28;20049;-83
2022/04/23 13:20:08;;;;;;;7.18;5.43;;;;;;;;;;4959379;28;20061;-79
2022/04/23 13:22:34;;;;;;;8.13;5.00;;;;;;;;;;4959385;28;20054;-84
2022/04/23 13:25:00;;;;;;;8.13;4.38;;;;;;;;;;4959456;28;20065;-84
2022/04/23 13:27:26;;;;;;;5.85;4.45;;;;;;;;;;4943538;28;20049;-82
2022/04/23 13:29:52;;;;;;;5.47;4.40;;;;;;;;;;4943252;28;20062;-81
2022/04/23 13:32:19;;;;;;;8.63;5.05;;;;;;;;;;4959135;28;20149;-85
2022/04/23 13:34:45;;;;;;;6.53;4.07;;;;;;;;;;4960387;28;20525;-80
2022/04/23 13:37:11;;;;;;;6.18;4.15;;;;;;;;;;4963486;28;20081;-78
2022/04/23 13:39:37;;;;;;;7.05;4.85;;;;;;;;;;4962994;28;20042;-80
2022/04/23 13:42:03;;;;;;;5.60;4.05;;;;;;;;;;4979325;28;20042;-84
2022/04/23 13:44:30;;;;;;;7.13;4.50;;;;;;;;;;4962739;28;20445;-85
2022/04/23 13:46:56;;;;;;;9.52;5.72;;;;;;;;;;4963007;28;20085;-82
2022/04/23 13:49:25;;;;;;;5.40;4.20;;;;;;;;;;4962803;28;20038;-83
2022/04/23 13:51:51;;;;;;;6.28;4.38;;;;;;;;;;4962788;28;20042;-82
2022/04/23 13:54:18;;;;;;;4.28;3.75;;;;;;;;;;4962703;28;20043;-83
2022/04/23 13:56:44;;;;;;;8.30;4.53;;;;;;;;;;4962605;28;20466;-81
2022/04/23 13:59:10;;;;;;;5.93;4.28;;;;;;;;;;4978800;28;20045;-79
2022/04/23 14:01:37;;;;;;;7.07;4.13;;;;;;;;;;4963035;28;20411;-83
2022/04/23 14:12:17;;;;;;;5.30;4.15;;;;;;;;;;4978195;28;20058;-80
2022/04/23 14:14:43;;;;;;;7.15;4.40;;;;;;;;;;4962100;28;20038;-81
2022/04/23 14:17:09;;;;;;;6.53;4.32;;;;;;;;;;4962483;28;20049;-82
2022/04/23 14:19:35;;;;;;;4.95;4.43;;;;;;;;;;4978177;28;20050;-86
2022/04/23 14:22:02;;;;;;;5.97;4.47;;;;;;;;;;4978443;28;20046;-83
2022/04/23 14:24:28;;;;;;;6.55;4.22;;;;;;;;;;4962281;28;20121;-83
2022/04/23 14:26:54;;;;;;;4.40;3.85;;;;;;;;;;4961984;28;20645;-83
2022/04/23 14:29:20;;;;;;;4.20;3.80;;;;;;;;;;4961894;28;20054;-84
2022/04/23 14:31:46;;;;;;;4.78;3.40;;;;;;;;;;4961841;28;20068;-81
2022/04/23 14:34:12;;;;;;;8.40;4.10;;;;;;;;;;4961783;28;20125;-84
2022/04/23 14:36:38;;;;;;;9.05;4.28;;;;;;;;;;4978202;28;20109;-80
2022/04/23 14:39:07;;;;;;;4.00;3.60;;;;;;;;;;4961770;28;20042;-82
2022/04/23 14:41:33;;;;;;;6.03;3.78;;;;;;;;;;4961703;28;20048;-83
2022/04/23 14:43:59;;;;;;;4.20;3.40;;;;;;;;;;4977942;28;20129;-78
2022/04/23 14:46:25;;;;;;;7.63;4.63;;;;;;;;;;4976771;28;20466;-84
2022/04/23 14:48:51;;;;;;;4.28;3.65;;;;;;;;;;4961626;28;20046;-81
2022/04/23 14:54:02;;;;;;;6.07;4.07;;;;;;;;;;4977748;28;20050;-84
2022/04/23 14:56:28;;;;;;;4.32;3.72;;;;;;;;;;4961755;28;20034;-82
2022/04/23 14:58:55;;;;;;;5.97;3.95;;;;;;;;;;4961333;28;20038;-78
2022/04/23 15:01:21;;;;;;;5.20;3.88;;;;;;;;;;4945248;28;20077;-79
2022/04/23 15:03:47;;;;;;;7.65;3.63;;;;;;;;;;4961366;28;20049;-82
2022/04/23 15:06:13;;;;;;;5.57;4.82;;;;;;;;;;4977747;28;20039;-80
2022/04/23 15:08:39;;;;;;;6.38;3.40;;;;;;;;;;4961302;28;20494;-81
2022/04/23 15:11:10;;;;;;;4.50;3.17;;;;;;;;;;4961450;28;20479;-86
2022/04/23 15:13:36;;;;;;;3.83;3.47;;;;;;;;;;4960805;28;20038;-81
2022/04/23 15:16:02;;;;;;;5.38;3.90;;;;;;;;;;4960944;28;20057;-85
2022/04/23 15:18:28;;;;;;;5.03;3.15;;;;;;;;;;4961054;28;20046;-79
2022/04/23 15:20:54;;;;;;;7.13;3.67;;;;;;;;;;4961263;28;20467;-81
2022/04/23 15:23:20;;;;;;;4.93;3.30;;;;;;;;;;4976577;28;20046;-78
2022/04/23 15:25:47;;;;;;;6.68;3.70;;;;;;;;;;4960780;28;20047;-79
2022/04/23 15:28:14;;;;;;;4.25;3.63;;;;;;;;;;4960726;28;20050;-77
2022/04/23 15:30:40;;;;;;;6.35;3.92;;;;;;;;;;4960095;28;20058;-81